Time;durP1;ratioP1;P1;durP2;ratioP2;P2;SDS_P1;SDS_P2;PMS_P1;PMS_P2;Temp;Humidity;BMP_temperature;BMP_pressure;BME280_temperature;BME280_humidity;BME280_pressure;Samples;Min_cycle;Max_cycle;Signal;HPM_P1;HPM_P2
2023/07/06 00:01:57;;;;;;;11.12;3.92;;;;;;;24.99;53.58;99354.00;4435235;32;34024;-63
2023/07/06 00:04:26;;;;;;;6.00;3.70;;;;;;;25.19;53.09;99368.44;4435562;32;33599;-63
2023/07/06 00:06:55;;;;;;;8.35;4.35;;;;;;;24.99;53.56;99360.31;4433974;32;33440;-63
2023/07/06 00:09:23;;;;;;;7.10;4.07;;;;;;;25.14;52.88;99367.44;4431843;32;34568;-63
2023/07/06 00:11:51;;;;;;;5.12;2.87;;;;;;;25.51;51.83;99366.56;4428685;32;34720;-63
2023/07/06 00:14:19;;;;;;;6.28;3.58;;;;;;;25.16;52.84;99365.31;4430503;32;34989;-63
2023/07/06 00:16:47;;;;;;;7.87;3.80;;;;;;;25.16;52.90;99360.66;4431802;32;33471;-63
2023/07/06 00:19:19;;;;;;;6.90;3.37;;;;;;;25.05;53.11;99364.06;4433408;32;33265;-63
2023/07/06 00:21:49;;;;;;;7.00;3.62;;;;;;;25.07;52.95;99356.47;4432020;32;33419;-63
2023/07/06 00:24:17;;;;;;;8.60;4.25;;;;;;;25.04;52.96;99374.19;4433762;32;34882;-63
2023/07/06 00:26:45;;;;;;;7.75;3.53;;;;;;;25.03;53.12;99372.50;4435494;32;33711;-63
2023/07/06 00:29:15;;;;;;;7.28;3.78;;;;;;;25.16;52.56;99368.03;4432973;32;34010;-63
2023/07/06 00:31:53;;;;;;;5.68;3.28;;;;;;;24.85;53.24;99375.13;4429464;32;33467;-63
2023/07/06 00:34:21;;;;;;;7.82;4.47;;;;;;;24.94;53.10;99364.75;4434012;32;33650;-63
2023/07/06 00:36:49;;;;;;;8.70;4.45;;;;;;;25.06;52.65;99371.22;4434856;32;35167;-63
2023/07/06 00:39:18;;;;;;;6.35;3.83;;;;;;;25.12;52.55;99355.81;4430323;32;33913;-62
2023/07/06 00:41:46;;;;;;;9.57;3.72;;;;;;;24.87;53.19;99368.34;4432969;32;33607;-63
2023/07/06 00:44:53;;;;;;;8.10;3.35;;;;;;;24.94;53.07;99364.75;4434251;32;33326;-63
2023/07/06 00:47:40;;;;;;;6.30;3.35;;;;;;;25.01;52.71;99362.84;4433262;32;33369;-63
2023/07/06 00:50:16;;;;;;;8.75;4.45;;;;;;;24.83;53.40;99363.53;4427578;32;33218;-63
2023/07/06 00:52:48;;;;;;;;;;;;;;;24.90;53.16;99360.78;4432584;32;34018;-62
2023/07/06 00:55:18;;;;;;;9.38;3.67;;;;;;;24.70;53.70;99369.06;4428856;32;33882;-63
2023/07/06 00:57:48;;;;;;;8.02;3.35;;;;;;;24.84;53.06;99365.22;4432831;32;33825;-62
2023/07/06 01:00:20;;;;;;;5.53;2.87;;;;;;;24.92;52.59;99366.88;4430936;32;34519;-63
2023/07/06 01:02:55;;;;;;;5.50;3.03;;;;;;;24.79;52.79;99368.59;4412693;32;34025;-62
2023/07/06 01:05:24;;;;;;;8.30;3.40;;;;;;;24.63;52.83;99371.81;4447712;32;35274;-62
2023/07/06 01:07:54;;;;;;;8.15;2.70;;;;;;;24.69;52.38;99379.16;4440456;32;33834;-62
2023/07/06 01:10:23;;;;;;;5.35;2.78;;;;;;;24.75;52.12;99377.44;4426501;32;33632;-63
2023/07/06 01:12:51;;;;;;;8.52;3.75;;;;;;;24.73;52.35;99369.47;4429191;32;34632;-63
2023/07/06 01:15:19;;;;;;;7.60;3.08;;;;;;;24.83;52.34;99377.22;4433449;32;35239;-62
2023/07/06 01:17:53;;;;;;;5.97;2.53;;;;;;;24.48;53.30;99373.97;4429865;32;34494;-62
2023/07/06 01:20:31;;;;;;;7.50;3.23;;;;;;;24.31;53.24;99373.53;4430168;32;34089;-63
2023/07/06 01:23:23;;;;;;;6.40;3.12;;;;;;;24.48;52.48;99371.22;4430131;32;33715;-63
2023/07/06 01:25:57;;;;;;;8.25;3.53;;;;;;;24.44;52.49;99364.50;4434074;32;33987;-63
2023/07/06 01:28:50;;;;;;;6.20;2.83;;;;;;;24.77;51.46;99372.59;4432812;32;34175;-63
2023/07/06 01:31:42;;;;;;;10.88;2.97;;;;;;;24.93;51.03;99363.91;4442732;32;34694;-63
2023/07/06 01:34:34;;;;;;;8.25;3.30;;;;;;;25.12;50.36;99369.53;4432542;32;34349;-62
2023/07/06 01:37:14;;;;;;;6.90;2.67;;;;;;;24.90;50.80;99371.72;4444868;32;34083;-63
2023/07/06 01:39:41;;;;;;;5.20;2.25;;;;;;;24.90;50.83;99374.47;4433041;32;33520;-63
2023/07/06 01:42:09;;;;;;;7.07;3.80;;;;;;;25.08;50.23;99374.59;4435483;32;33372;-63
2023/07/06 01:44:39;;;;;;;9.88;3.28;;;;;;;25.06;50.54;99366.59;4435251;32;34785;-63
2023/07/06 01:47:06;;;;;;;8.13;3.30;;;;;;;24.65;51.14;99366.94;4436583;32;33673;-62
2023/07/06 01:49:35;;;;;;;3.72;1.92;;;;;;;24.82;50.53;99368.19;4432790;32;33719;-63
2023/07/06 01:52:10;;;;;;;5.55;2.62;;;;;;;24.63;50.85;99364.44;4432528;32;33461;-67
2023/07/06 01:54:50;;;;;;;5.70;2.72;;;;;;;24.89;50.41;99367.31;4425460;32;33808;-63
2023/07/06 01:57:25;;;;;;;5.68;2.42;;;;;;;24.97;50.22;99362.41;4432850;32;33749;-63
2023/07/06 01:59:54;;;;;;;7.30;3.03;;;;;;;25.08;50.02;99360.91;4417995;32;33311;-63
2023/07/06 02:02:22;;;;;;;5.55;2.37;;;;;;;24.72;50.96;99365.06;4415497;32;33610;-62
2023/07/06 02:04:52;;;;;;;5.30;2.42;;;;;;;24.74;50.72;99365.66;4417816;32;33779;-63
2023/07/06 02:07:20;;;;;;;4.62;2.30;;;;;;;24.52;51.52;99361.53;4413042;32;34091;-64
2023/07/06 02:09:48;;;;;;;4.82;2.45;;;;;;;24.61;51.29;99368.44;4403042;32;34198;-62
2023/07/06 02:12:16;;;;;;;5.62;2.37;;;;;;;24.74;50.85;99367.56;4402514;32;33098;-62
2023/07/06 02:14:44;;;;;;;5.93;2.67;;;;;;;24.73;50.89;99369.47;4417064;32;35040;-62
2023/07/06 02:17:12;;;;;;;7.78;3.35;;;;;;;24.45;51.59;99361.53;4419405;32;33787;-62
2023/07/06 02:19:39;;;;;;;6.28;3.12;;;;;;;24.46;51.67;99363.22;4417655;32;34679;-62
2023/07/06 02:22:08;;;;;;;7.37;2.87;;;;;;;24.26;52.35;99370.59;4414955;32;33400;-62
2023/07/06 02:24:37;;;;;;;4.97;2.65;;;;;;;24.40;52.12;99373.09;4411316;32;33602;-62
2023/07/06 02:27:05;;;;;;;5.45;2.53;;;;;;;23.99;52.98;99372.53;4405786;32;35340;-62
2023/07/06 02:29:33;;;;;;;4.60;2.42;;;;;;;24.22;52.69;99375.66;4413418;32;34308;-62
2023/07/06 02:32:01;;;;;;;4.03;2.20;;;;;;;23.85;53.79;99380.72;4409139;32;33522;-62
2023/07/06 02:34:28;;;;;;;3.92;2.20;;;;;;;24.48;51.95;99384.91;4414244;32;34622;-62
2023/07/06 02:36:56;;;;;;;6.07;2.58;;;;;;;24.36;52.35;99388.25;4424000;32;34953;-62
2023/07/06 02:39:24;;;;;;;4.28;2.55;;;;;;;23.93;53.33;99391.44;4433572;32;32481;-62
2023/07/06 02:41:53;;;;;;;4.95;2.05;;;;;;;23.50;54.84;99390.94;4436092;32;33025;-62
2023/07/06 02:44:22;;;;;;;4.72;2.42;;;;;;;23.27;55.45;99399.47;4427308;32;34739;-62
2023/07/06 02:46:51;;;;;;;8.43;2.47;;;;;;;23.08;55.88;99400.25;4432651;32;35296;-62
2023/07/06 02:49:19;;;;;;;5.62;2.70;;;;;;;23.14;55.92;99410.34;4434764;32;33617;-63
2023/07/06 02:51:46;;;;;;;5.25;2.47;;;;;;;23.56;54.90;99403.75;4435333;32;33514;-62
2023/07/06 02:54:15;;;;;;;7.22;2.62;;;;;;;24.00;53.47;99407.00;4432356;32;33838;-62
2023/07/06 02:56:43;;;;;;;5.05;2.08;;;;;;;23.98;53.52;99401.75;4434183;32;32524;-62
2023/07/06 02:59:13;;;;;;;6.43;2.37;;;;;;;23.39;55.08;99411.50;4432692;32;33855;-62
2023/07/06 03:01:41;;;;;;;4.87;1.85;;;;;;;23.57;54.45;99399.16;4433720;32;32068;-62
2023/07/06 03:04:11;;;;;;;5.95;2.50;;;;;;;23.40;55.23;99406.84;4435731;32;34663;-63
2023/07/06 03:06:39;;;;;;;4.20;2.03;;;;;;;23.95;53.40;99396.69;4434835;32;33778;-63
2023/07/06 03:09:09;;;;;;;5.75;2.20;;;;;;;23.89;53.64;99398.37;4436708;32;35156;-63
2023/07/06 03:11:37;;;;;;;6.93;1.90;;;;;;;24.17;52.95;99408.25;4435103;32;33485;-62
2023/07/06 03:14:05;;;;;;;5.60;1.87;;;;;;;24.32;52.63;99405.28;4431735;32;34345;-62
2023/07/06 03:16:39;;;;;;;3.35;1.85;;;;;;;24.40;52.12;99407.81;4432902;32;32532;-62
2023/07/06 03:19:08;;;;;;;4.10;2.12;;;;;;;24.63;51.76;99410.97;4435006;32;33782;-63
2023/07/06 03:21:40;;;;;;;3.58;2.05;;;;;;;23.90;53.42;99405.50;4435170;32;33292;-62
2023/07/06 03:24:08;;;;;;;4.82;1.90;;;;;;;24.16;52.51;99403.84;4433239;32;33965;-62
2023/07/06 03:26:36;;;;;;;4.95;2.33;;;;;;;23.81;53.70;99404.03;4431443;32;33848;-62
2023/07/06 03:29:06;;;;;;;8.25;1.80;;;;;;;23.69;54.12;99406.56;4435713;32;33534;-62
2023/07/06 03:31:33;;;;;;;9.45;2.20;;;;;;;24.30;52.37;99408.25;4433655;32;33294;-62
2023/07/06 03:34:02;;;;;;;5.68;2.08;;;;;;;23.71;53.99;99409.06;4433701;32;34772;-63
2023/07/06 03:36:33;;;;;;;4.00;1.52;;;;;;;24.15;52.71;99413.09;4431137;32;34830;-62
2023/07/06 03:39:01;;;;;;;3.92;2.03;;;;;;;23.70;53.50;99415.59;4435277;32;33813;-63
2023/07/06 03:41:29;;;;;;;4.37;1.95;;;;;;;23.42;54.04;99421.16;4434895;32;34195;-63
2023/07/06 03:43:58;;;;;;;4.18;1.50;;;;;;;23.25;54.64;99426.16;4434845;32;33989;-63
2023/07/06 03:46:32;;;;;;;3.62;1.73;;;;;;;23.19;55.18;99435.16;4430183;32;33583;-62
2023/07/06 03:49:03;;;;;;;4.03;1.70;;;;;;;23.43;54.48;99423.69;4429595;32;33977;-62
2023/07/06 03:51:31;;;;;;;2.33;1.37;;;;;;;22.75;56.41;99431.75;4435882;32;34004;-62
2023/07/06 03:54:05;;;;;;;4.25;1.87;;;;;;;21.96;58.78;99433.84;4435224;32;33577;-62
2023/07/06 03:56:33;;;;;;;4.65;2.00;;;;;;;22.26;58.12;99440.88;4430784;32;34618;-62
2023/07/06 03:59:02;;;;;;;3.00;1.52;;;;;;;21.92;59.39;99443.47;4434340;32;35055;-62
2023/07/06 04:01:31;;;;;;;4.78;2.30;;;;;;;21.98;58.93;99443.53;4433825;32;33522;-62
2023/07/06 04:03:59;;;;;;;2.95;1.83;;;;;;;22.17;58.73;99450.22;4432490;32;34940;-62
2023/07/06 04:06:28;;;;;;;5.32;1.62;;;;;;;22.45;57.52;99455.69;4431052;32;34879;-62
2023/07/06 04:08:56;;;;;;;3.90;1.55;;;;;;;22.24;58.05;99459.28;4432134;32;33727;-62
2023/07/06 04:11:25;;;;;;;3.83;1.87;;;;;;;22.13;58.60;99461.69;4434884;32;32945;-62
2023/07/06 04:13:57;;;;;;;3.78;2.03;;;;;;;22.50;57.32;99466.87;4426655;32;33600;-63
2023/07/06 04:16:26;;;;;;;3.90;1.62;;;;;;;22.03;58.42;99478.38;4429461;32;32724;-62
2023/07/06 04:18:55;;;;;;;4.15;1.77;;;;;;;22.96;55.97;99487.34;4441621;32;34517;-62
2023/07/06 04:21:23;;;;;;;4.05;1.98;;;;;;;22.81;56.06;99481.97;4434713;32;32822;-62
2023/07/06 04:23:50;;;;;;;5.68;2.30;;;;;;;22.54;56.78;99483.66;4433432;32;33596;-62
2023/07/06 04:26:20;;;;;;;6.43;2.05;;;;;;;22.01;58.35;99478.56;4426844;32;34200;-62
2023/07/06 04:28:50;;;;;;;2.92;1.48;;;;;;;22.20;58.30;99478.97;4431479;32;33986;-62
2023/07/06 04:31:18;;;;;;;4.47;2.22;;;;;;;22.22;57.97;99479.62;4433351;32;34030;-62
2023/07/06 04:33:45;;;;;;;19.77;2.30;;;;;;;22.04;58.67;99485.50;4434730;32;32538;-62
2023/07/06 04:36:17;;;;;;;3.80;1.92;;;;;;;22.40;57.57;99482.72;4424999;32;34958;-62
2023/07/06 04:38:45;;;;;;;5.97;2.55;;;;;;;22.61;56.73;99475.53;4433056;32;33931;-62
2023/07/06 04:41:13;;;;;;;8.27;2.30;;;;;;;;;;4433996;32;33209;-61
2023/07/06 04:43:41;;;;;;;3.10;1.58;;;;;;;23.10;55.38;99477.31;4426161;32;33568;-61
2023/07/06 04:46:09;;;;;;;4.28;1.73;;;;;;;23.52;54.48;99481.69;4430626;32;34629;-62
2023/07/06 04:48:36;;;;;;;5.28;1.80;;;;;;;23.24;54.82;99487.25;4434442;32;33940;-62
2023/07/06 04:51:04;;;;;;;4.07;1.60;;;;;;;23.05;55.50;99483.41;4436947;32;33612;-61
2023/07/06 04:53:37;;;;;;;6.12;2.42;;;;;;;23.13;55.28;99485.09;4431602;32;33879;-61
2023/07/06 04:56:06;;;;;;;4.97;1.70;;;;;;;22.41;57.14;99481.69;4436705;32;35230;-61
2023/07/06 04:58:34;;;;;;;4.15;1.75;;;;;;;23.19;55.05;99495.22;4437057;32;34889;-62
2023/07/06 05:01:06;;;;;;;4.65;2.12;;;;;;;22.64;56.26;99489.63;4431404;32;34333;-61
2023/07/06 05:03:35;;;;;;;6.60;2.20;;;;;;;23.30;54.87;99494.62;4402458;32;34654;-61
2023/07/06 05:06:08;;;;;;;6.45;1.58;;;;;;;22.54;57.22;99481.78;4405925;32;34983;-61
2023/07/06 05:08:36;;;;;;;3.85;1.70;;;;;;;22.71;58.69;99486.94;4403798;32;33186;-61
2023/07/06 05:11:04;;;;;;;5.03;2.12;;;;;;;22.88;58.36;99487.44;4406033;32;34162;-61
2023/07/06 05:13:32;;;;;;;6.70;2.05;;;;;;;23.33;57.43;99490.66;4403631;32;35039;-63
2023/07/06 05:16:00;;;;;;;4.57;2.20;;;;;;;23.67;56.37;99492.47;4400715;32;33994;-62
2023/07/06 05:18:29;;;;;;;4.97;2.15;;;;;;;23.53;56.53;99501.66;4403361;32;34619;-62
2023/07/06 05:20:57;;;;;;;4.78;1.60;;;;;;;22.65;59.52;99504.09;4405011;32;33508;-62
2023/07/06 05:23:28;;;;;;;11.60;2.53;;;;;;;22.52;60.26;99502.09;4405233;32;33620;-62
2023/07/06 05:26:00;;;;;;;6.28;2.40;;;;;;;23.19;58.24;99501.53;4396704;32;35191;-62
2023/07/06 05:28:29;;;;;;;6.35;2.25;;;;;;;22.68;60.80;99506.41;4400420;32;34998;-62
2023/07/06 05:30:57;;;;;;;7.22;2.05;;;;;;;22.82;60.70;99518.25;4405302;32;33233;-62
2023/07/06 05:33:25;;;;;;;5.50;2.12;;;;;;;23.22;59.97;99522.13;4403002;32;35116;-62
2023/07/06 05:35:53;;;;;;;6.18;1.95;;;;;;;23.30;59.91;99521.94;4403994;32;33736;-62
2023/07/06 05:38:21;;;;;;;5.03;1.85;;;;;;;22.37;62.58;99524.00;4403739;32;33950;-62
2023/07/06 05:40:49;;;;;;;6.93;2.60;;;;;;;23.13;60.19;99523.31;4405810;32;33617;-62
2023/07/06 05:43:19;;;;;;;6.00;1.92;;;;;;;23.27;60.18;99533.25;4404776;32;34347;-62
2023/07/06 05:45:47;;;;;;;4.62;1.85;;;;;;;23.45;59.14;99538.19;4404506;32;35295;-62
2023/07/06 05:48:15;;;;;;;4.45;1.87;;;;;;;23.47;58.71;99533.38;4402413;32;33619;-63
2023/07/06 05:50:43;;;;;;;3.05;1.60;;;;;;;22.98;61.17;99521.53;4403880;32;33945;-62
2023/07/06 05:53:10;;;;;;;9.52;1.73;;;;;;;23.33;60.50;99521.53;4403073;32;34177;-63
2023/07/06 05:55:40;;;;;;;3.95;1.83;;;;;;;23.58;59.73;99508.19;4401592;32;34744;-62
2023/07/06 05:58:08;;;;;;;5.57;2.22;;;;;;;23.07;61.61;99500.41;4403107;32;34493;-62
2023/07/06 06:00:36;;;;;;;6.28;2.22;;;;;;;23.45;60.78;99484.41;4403349;32;34237;-62
2023/07/06 06:03:05;;;;;;;4.45;1.83;;;;;;;23.66;60.28;99488.91;4428068;32;33788;-62
2023/07/06 06:05:34;;;;;;;16.58;3.10;;;;;;;23.92;59.47;99500.97;4430132;32;33870;-63
2023/07/06 06:08:02;;;;;;;6.00;2.20;;;;;;;23.83;59.91;99507.69;4433525;32;33535;-63
2023/07/06 06:10:31;;;;;;;6.20;1.77;;;;;;;23.88;59.23;99507.88;4430514;32;34469;-62
2023/07/06 06:12:58;;;;;;;15.55;2.65;;;;;;;23.92;59.44;99517.38;4433893;32;33813;-62
2023/07/06 06:15:27;;;;;;;3.92;1.83;;;;;;;24.02;59.20;99522.44;4432877;32;34921;-63
2023/07/06 06:17:55;;;;;;;13.80;2.65;;;;;;;24.06;59.20;99521.81;4428848;32;33486;-63
2023/07/06 06:20:22;;;;;;;5.50;2.12;;;;;;;24.01;59.51;99521.56;4432367;32;33437;-63
2023/07/06 06:22:51;;;;;;;6.35;2.37;;;;;;;24.07;59.27;99526.22;4433879;32;34483;-63
2023/07/06 06:25:19;;;;;;;9.65;2.90;;;;;;;24.06;58.69;99532.75;4430985;32;34493;-62
2023/07/06 06:27:47;;;;;;;8.60;2.40;;;;;;;24.13;58.87;99528.13;4432501;32;34010;-63
2023/07/06 06:30:15;;;;;;;6.40;2.72;;;;;;;24.26;58.54;99523.72;4429180;32;35425;-63
2023/07/06 06:32:43;;;;;;;3.55;2.00;;;;;;;24.19;59.52;99523.72;4428033;32;34957;-63
2023/07/06 06:35:25;;;;;;;4.43;2.28;;;;;;;24.27;58.87;99519.94;4430365;32;35927;-63
2023/07/06 06:37:53;;;;;;;7.20;2.45;;;;;;;24.22;59.62;99523.31;4432158;32;33552;-63
2023/07/06 06:40:21;;;;;;;5.57;2.92;;;;;;;23.62;60.14;99531.31;4434032;32;34529;-63
2023/07/06 06:42:49;;;;;;;4.57;1.98;;;;;;;24.35;58.57;99533.41;4433173;32;34642;-63
2023/07/06 06:45:18;;;;;;;6.53;2.53;;;;;;;24.44;59.02;99532.19;4433609;32;33583;-64
2023/07/06 06:47:45;;;;;;;4.80;2.10;;;;;;;24.31;60.07;99526.69;4434213;32;34360;-63
2023/07/06 06:50:17;;;;;;;4.85;2.55;;;;;;;24.25;61.06;99539.31;4432377;32;33926;-64
2023/07/06 06:52:45;;;;;;;6.32;2.62;;;;;;;24.39;61.32;99537.41;4423197;32;33456;-63
2023/07/06 06:55:13;;;;;;;3.45;1.98;;;;;;;24.51;60.42;99532.19;4434862;32;34197;-63
2023/07/06 06:57:41;;;;;;;6.07;2.50;;;;;;;24.57;60.77;99543.13;4434624;32;33660;-63
2023/07/06 07:00:10;;;;;;;3.97;1.92;;;;;;;24.28;60.33;99549.00;4429596;32;33271;-63
2023/07/06 07:02:38;;;;;;;6.78;2.58;;;;;;;24.52;59.80;99550.28;4431667;32;34416;-63
2023/07/06 07:05:07;;;;;;;4.65;2.33;;;;;;;24.12;60.32;99547.50;4430399;32;34903;-64
2023/07/06 07:07:39;;;;;;;5.95;2.00;;;;;;;23.99;59.50;99550.19;4431591;32;34652;-63
2023/07/06 07:10:09;;;;;;;8.40;2.92;;;;;;;24.17;59.04;99558.63;4430731;32;32335;-64
2023/07/06 07:12:39;;;;;;;4.37;1.87;;;;;;;24.38;59.76;99544.78;4432004;32;33748;-63
2023/07/06 07:15:11;;;;;;;5.10;2.03;;;;;;;24.69;58.62;99537.88;4432699;32;34685;-63
2023/07/06 07:17:39;;;;;;;7.00;2.70;;;;;;;24.43;59.22;99536.00;4431990;32;35202;-63
2023/07/06 07:20:09;;;;;;;7.05;3.50;;;;;;;24.54;59.25;99532.62;4427920;32;35375;-62
2023/07/06 07:22:39;;;;;;;6.90;2.90;;;;;;;23.92;61.14;99531.88;4425769;32;34678;-63
2023/07/06 07:25:07;;;;;;;5.85;2.15;;;;;;;24.44;58.63;99539.56;4429360;32;34880;-62
2023/07/06 07:27:35;;;;;;;4.82;2.30;;;;;;;24.83;57.51;99544.19;4427927;32;32786;-62
2023/07/06 07:30:04;;;;;;;5.97;2.65;;;;;;;24.93;56.89;99536.37;4432143;32;34642;-62
2023/07/06 07:32:33;;;;;;;4.45;2.45;;;;;;;24.75;58.23;99539.78;4430383;32;36115;-62
2023/07/06 07:35:01;;;;;;;12.00;2.45;;;;;;;24.79;57.16;99537.47;4433434;32;35247;-62
2023/07/06 07:37:28;;;;;;;5.18;2.05;;;;;;;24.84;56.91;99530.28;4431692;32;33885;-63
2023/07/06 07:39:57;;;;;;;5.18;2.22;;;;;;;24.65;57.79;99533.88;4426097;32;34537;-62
2023/07/06 07:42:25;;;;;;;6.03;2.60;;;;;;;24.95;56.83;99536.19;4427210;32;33458;-62
2023/07/06 07:44:57;;;;;;;8.05;2.42;;;;;;;25.08;56.02;99534.25;4432152;32;34083;-63
2023/07/06 07:47:27;;;;;;;5.03;2.22;;;;;;;24.90;56.71;99525.84;4433394;32;33676;-63
2023/07/06 07:49:55;;;;;;;3.78;1.87;;;;;;;24.73;56.37;99536.41;4430947;32;227357;-63
2023/07/06 07:52:22;;;;;;;5.30;2.33;;;;;;;24.36;57.45;99535.09;4429873;32;20085;-62
2023/07/06 07:54:52;;;;;;;6.78;2.92;;;;;;;24.72;56.62;99534.72;4431057;32;33911;-63
2023/07/06 07:57:21;;;;;;;4.80;2.42;;;;;;;24.50;56.72;99527.78;4429570;32;33023;-63
2023/07/06 07:59:49;;;;;;;5.22;2.20;;;;;;;25.02;55.75;99520.56;4431361;32;33695;-63
2023/07/06 08:02:17;;;;;;;5.62;2.95;;;;;;;25.02;56.09;99526.03;4431696;32;33777;-62
2023/07/06 08:04:47;;;;;;;4.07;2.20;;;;;;;24.98;56.84;99525.62;4431640;32;33670;-63
2023/07/06 08:07:15;;;;;;;6.05;2.47;;;;;;;24.72;57.96;99528.37;4430535;32;34005;-63
2023/07/06 08:09:43;;;;;;;3.62;1.83;;;;;;;25.09;56.19;99522.22;4431684;32;33653;-62
2023/07/06 08:12:11;;;;;;;5.10;2.50;;;;;;;25.63;55.18;99522.91;4433777;32;33750;-63
2023/07/06 08:14:43;;;;;;;6.95;2.70;;;;;;;25.73;54.22;99522.44;4427336;32;33505;-63
2023/07/06 08:17:12;;;;;;;7.25;2.08;;;;;;;25.75;54.81;99518.44;4431898;32;33563;-63
2023/07/06 08:19:40;;;;;;;4.85;2.28;;;;;;;25.67;54.80;99515.94;4427422;32;33457;-62
2023/07/06 08:22:29;;;;;;;4.40;1.55;;;;;;;25.45;55.68;99523.63;4420904;32;33900;-63
2023/07/06 08:24:58;;;;;;;4.40;2.58;;;;;;;25.88;54.97;99520.28;4432246;32;33566;-62
2023/07/06 08:27:26;;;;;;;7.22;2.35;;;;;;;25.48;55.40;99528.66;4432468;32;33434;-63
2023/07/06 08:29:54;;;;;;;4.53;2.92;;;;;;;25.42;53.55;99523.22;4425151;32;33652;-63
2023/07/06 08:32:22;;;;;;;7.10;2.03;;;;;;;25.10;55.38;99534.00;4430599;32;33746;-62
2023/07/06 08:34:50;;;;;;;6.87;2.35;;;;;;;24.79;55.91;99541.03;4432201;32;33565;-62
2023/07/06 08:37:18;;;;;;;4.53;2.20;;;;;;;24.94;55.37;99548.16;4431313;32;33350;-63
2023/07/06 08:39:47;;;;;;;4.57;2.28;;;;;;;24.85;55.48;99545.66;4433111;32;33839;-62
2023/07/06 08:42:18;;;;;;;5.78;2.92;;;;;;;25.18;54.15;99542.03;4429739;32;35228;-62
2023/07/06 08:44:53;;;;;;;4.57;1.92;;;;;;;25.00;55.71;99544.56;4431439;32;33874;-62
2023/07/06 08:47:25;;;;;;;9.85;2.37;;;;;;;25.64;54.43;99542.94;4399185;32;33101;-62
2023/07/06 08:49:55;;;;;;;5.95;2.37;;;;;;;25.42;54.26;99543.22;4398079;32;34872;-62
2023/07/06 08:52:24;;;;;;;6.07;2.10;;;;;;;25.05;55.08;99542.03;4389261;32;34971;-62
2023/07/06 08:54:52;;;;;;;11.05;3.17;;;;;;;24.87;56.79;99534.47;4396148;32;34019;-62
2023/07/06 08:57:22;;;;;;;5.55;2.37;;;;;;;25.32;55.02;99532.72;4401402;32;32719;-63
2023/07/06 08:59:50;;;;;;;5.07;2.37;;;;;;;25.49;55.03;99530.38;4395568;32;33344;-62
2023/07/06 09:02:28;;;;;;;4.93;2.05;;;;;;;25.39;54.79;99529.13;4381325;32;35147;-62
2023/07/06 09:04:59;;;;;;;8.25;2.85;;;;;;;26.27;52.09;99528.50;4392895;32;34508;-62
2023/07/06 09:07:34;;;;;;;5.22;2.50;;;;;;;26.12;53.18;99528.78;4380029;32;33139;-61
2023/07/06 09:10:17;;;;;;;6.65;3.08;;;;;;;26.42;53.09;99518.00;4382561;32;34666;-62
2023/07/06 09:13:11;;;;;;;5.93;2.70;;;;;;;26.71;50.39;99522.88;4396502;32;33778;-62
2023/07/06 09:15:39;;;;;;;6.85;3.08;;;;;;;26.15;51.55;99533.84;4399058;32;33998;-62
2023/07/06 09:18:13;;;;;;;5.05;2.30;;;;;;;26.49;51.44;99535.31;4408329;32;33579;-62
2023/07/06 09:20:44;;;;;;;6.75;2.35;;;;;;;26.37;52.15;99537.91;4423653;32;33665;-62
2023/07/06 09:23:13;;;;;;;5.32;2.90;;;;;;;26.39;52.14;99529.47;4426531;32;34229;-62
2023/07/06 09:25:43;;;;;;;5.65;2.47;;;;;;;26.05;52.83;99537.06;4420998;32;33654;-62
2023/07/06 09:28:29;;;;;;;8.60;3.83;;;;;;;25.97;53.00;99540.06;4424971;32;33038;-62
2023/07/06 09:31:11;;;;;;;5.32;2.50;;;;;;;26.54;51.98;99526.41;4414901;32;33609;-62
2023/07/06 09:33:50;;;;;;;6.60;2.80;;;;;;;26.00;53.92;99534.13;4399431;32;34588;-62
2023/07/06 09:36:24;;;;;;;5.25;2.35;;;;;;;26.54;51.11;99534.63;4408664;32;34632;-65
2023/07/06 09:38:52;;;;;;;4.80;2.08;;;;;;;26.70;50.80;99534.91;4418852;32;34493;-62
2023/07/06 09:41:26;;;;;;;7.43;2.58;;;;;;;26.54;51.19;99538.22;4418308;32;34551;-62
2023/07/06 09:43:57;;;;;;;5.93;2.97;;;;;;;26.47;50.94;99537.41;4416093;32;33159;-62
2023/07/06 09:46:35;;;;;;;8.18;2.75;;;;;;;26.57;49.69;99543.25;4419013;32;35098;-62
2023/07/06 09:49:17;;;;;;;6.18;2.90;;;;;;;26.47;50.66;99546.47;4417180;32;33055;-62
2023/07/06 09:51:55;;;;;;;4.78;2.45;;;;;;;26.20;51.55;99540.34;4417789;32;33570;-62
2023/07/06 09:54:50;;;;;;;11.68;3.05;;;;;;;26.44;51.02;99541.41;4414007;32;33646;-62
2023/07/06 09:57:18;;;;;;;16.35;3.83;;;;;;;26.62;51.65;99540.69;4409232;32;33654;-64
2023/07/06 09:59:48;;;;;;;5.95;2.85;;;;;;;26.40;50.37;99542.94;4410050;32;34253;-64
2023/07/06 10:02:38;;;;;;;5.53;2.17;;;;;;;26.64;52.14;99543.19;4420615;32;33736;-62
2023/07/06 10:05:26;;;;;;;5.10;2.45;;;;;;;27.21;50.27;99543.94;4399495;32;34813;-62
2023/07/06 10:08:00;;;;;;;8.20;2.80;;;;;;;27.41;48.34;99538.22;4401806;32;34687;-63
2023/07/06 10:10:34;;;;;;;;;;;;;;;27.66;50.16;99545.53;4390210;32;33279;-62
2023/07/06 10:13:07;;;;;;;5.57;3.05;;;;;;;27.64;47.43;99538.38;4400530;32;33864;-62
2023/07/06 10:15:45;;;;;;;4.40;2.05;;;;;;;27.81;47.40;99532.25;4401428;32;33447;-63
2023/07/06 10:18:18;;;;;;;5.15;2.20;;;;;;;28.21;45.94;99531.69;4386954;32;34886;-63
2023/07/06 10:20:55;;;;;;;5.35;2.30;;;;;;;28.00;46.82;99536.66;4393342;32;34273;-63
2023/07/06 10:23:58;;;;;;;8.43;3.83;;;;;;;27.79;47.34;99526.97;4386090;32;33312;-63
2023/07/06 10:26:33;;;;;;;4.95;2.47;;;;;;;28.34;43.48;99523.22;4361915;32;34097;-63
2023/07/06 10:29:08;;;;;;;5.62;2.35;;;;;;;28.23;42.93;99524.03;4365508;32;34647;-62
2023/07/06 10:31:43;;;;;;;6.40;2.78;;;;;;;28.46;43.07;99518.59;4367790;32;34304;-63
2023/07/06 10:34:48;;;;;;;6.18;2.72;;;;;;;28.82;42.27;99519.47;4355274;32;33343;-63
2023/07/06 10:37:17;;;;;;;7.93;2.10;;;;;;;29.29;41.58;99513.97;4349088;32;33824;-63
2023/07/06 10:39:44;;;;;;;5.60;3.00;;;;;;;28.95;43.03;99510.97;4349038;32;33433;-63
2023/07/06 10:42:31;;;;;;;5.87;3.30;;;;;;;29.21;42.85;99514.31;4355724;32;34345;-63
2023/07/06 10:45:02;;;;;;;6.35;2.35;;;;;;;29.62;43.91;99517.97;4340436;32;33360;-63
2023/07/06 10:47:33;;;;;;;6.15;2.47;;;;;;;29.37;41.36;99521.00;4362175;32;34699;-63
2023/07/06 10:50:15;;;;;;;7.25;2.97;;;;;;;29.47;42.24;99521.22;4356341;32;34496;-63
2023/07/06 10:52:43;;;;;;;7.35;3.40;;;;;;;30.08;40.47;99530.75;4343012;32;33006;-63
2023/07/06 10:55:25;;;;;;;5.65;2.50;;;;;;;29.34;41.88;99527.00;4341628;32;34064;-63
2023/07/06 10:57:57;;;;;;;7.57;3.28;;;;;;;29.51;41.00;99529.88;4355207;32;34245;-63
2023/07/06 11:00:35;;;;;;;5.62;2.62;;;;;;;29.67;39.44;99534.63;4345824;32;34792;-63
2023/07/06 11:03:03;;;;;;;5.82;3.00;;;;;;;29.65;39.80;99531.28;4356354;32;33488;-63
2023/07/06 11:05:36;;;;;;;5.80;2.37;;;;;;;29.42;39.95;99535.75;4363016;32;33660;-63
2023/07/06 11:08:10;;;;;;;6.62;3.15;;;;;;;30.04;39.68;99534.25;4366301;32;34514;-64
2023/07/06 11:10:42;;;;;;;;;;;;;;;29.39;39.56;99527.97;4355352;32;33957;-63
2023/07/06 11:13:12;;;;;;;9.20;3.60;;;;;;;29.73;39.21;99525.38;4386169;32;32992;-62
2023/07/06 11:15:43;;;;;;;7.12;2.85;;;;;;;29.44;39.44;99522.56;4396103;32;34544;-64
2023/07/06 11:18:11;;;;;;;6.75;3.05;;;;;;;29.30;39.61;99526.66;4401056;32;33690;-63
2023/07/06 11:20:39;;;;;;;7.37;2.70;;;;;;;29.34;39.63;99522.34;4400701;32;33409;-63
2023/07/06 11:23:12;;;;;;;6.65;3.05;;;;;;;29.74;38.53;99516.03;4399280;32;33114;-64
2023/07/06 11:25:40;;;;;;;7.78;3.35;;;;;;;29.49;39.22;99516.31;4355921;32;33467;-63
2023/07/06 11:28:12;;;;;;;4.93;2.40;;;;;;;29.67;39.71;99507.91;4356268;32;34848;-64
2023/07/06 11:30:54;;;;;;;6.93;3.10;;;;;;;29.45;38.33;99513.19;4342778;32;34796;-64
2023/07/06 11:34:15;;;;;;;6.87;2.50;;;;;;;29.77;38.13;99507.25;4361078;32;33180;-63
2023/07/06 11:36:55;;;;;;;7.68;2.80;;;;;;;29.51;38.17;99513.31;4365597;32;34834;-63
2023/07/06 11:39:49;;;;;;;10.55;2.97;;;;;;;28.81;37.96;99511.47;4364915;32;34973;-63
2023/07/06 11:42:43;;;;;;;7.05;2.97;;;;;;;29.61;37.71;99510.78;4368773;32;35316;-62
2023/07/06 11:45:35;;;;;;;8.82;2.80;;;;;;;29.73;37.70;99510.72;4357735;32;34119;-64
2023/07/06 11:48:26;;;;;;;5.80;3.00;;;;;;;29.68;36.78;99509.56;4370227;32;34736;-64
2023/07/06 11:50:54;;;;;;;6.50;2.80;;;;;;;29.66;37.31;99506.22;4364680;32;35063;-63
2023/07/06 11:53:54;;;;;;;10.57;1.92;;;;;;;29.62;37.52;99510.53;4368691;32;34158;-63
2023/07/06 11:56:35;;;;;;;5.12;2.53;;;;;;;29.87;35.16;99512.13;4384838;32;33134;-63